sensor_id;sensor_type;location;lat;lon;timestamp;temperature;humidity
12893;DHT22;6514;48.606;9.222;2022-11-20T00:00:40;4.30;99.90
12893;DHT22;6514;48.606;9.222;2022-11-20T00:03:07;4.30;99.90
12893;DHT22;6514;48.606;9.222;2022-11-20T00:05:35;4.30;99.90
12893;DHT22;6514;48.606;9.222;2022-11-20T00:08:02;4.30;99.90
12893;DHT22;6514;48.606;9.222;2022-11-20T00:10:29;4.30;99.90
12893;DHT22;6514;48.606;9.222;2022-11-20T00:12:57;4.20;99.90
12893;DHT22;6514;48.606;9.222;2022-11-20T00:15:24;4.20;99.90
12893;DHT22;6514;48.606;9.222;2022-11-20T00:17:51;4.10;99.90
12893;DHT22;6514;48.606;9.222;2022-11-20T00:20:18;4.00;99.90
12893;DHT22;6514;48.606;9.222;2022-11-20T00:22:46;4.00;99.90
12893;DHT22;6514;48.606;9.222;2022-11-20T00:25:13;3.90;99.90
12893;DHT22;6514;48.606;9.222;2022-11-20T00:27:40;3.90;99.90
12893;DHT22;6514;48.606;9.222;2022-11-20T00:30:08;3.80;99.90
12893;DHT22;6514;48.606;9.222;2022-11-20T00:32:35;3.70;99.90
12893;DHT22;6514;48.606;9.222;2022-11-20T00:35:02;3.70;99.90
12893;DHT22;6514;48.606;9.222;2022-11-20T00:37:28;3.60;99.90
12893;DHT22;6514;48.606;9.222;2022-11-20T00:39:57;3.60;99.90
12893;DHT22;6514;48.606;9.222;2022-11-20T00:42:23;3.50;99.90
12893;DHT22;6514;48.606;9.222;2022-11-20T00:44:50;3.50;99.90
12893;DHT22;6514;48.606;9.222;2022-11-20T00:47:17;3.50;99.90
12893;DHT22;6514;48.606;9.222;2022-11-20T00:49:44;3.50;99.90
12893;DHT22;6514;48.606;9.222;2022-11-20T00:52:11;3.40;99.90
12893;DHT22;6514;48.606;9.222;2022-11-20T00:54:38;3.40;99.90
12893;DHT22;6514;48.606;9.222;2022-11-20T00:57:06;3.40;99.90
12893;DHT22;6514;48.606;9.222;2022-11-20T00:59:33;3.40;99.90
12893;DHT22;6514;48.606;9.222;2022-11-20T01:01:59;3.30;99.90
12893;DHT22;6514;48.606;9.222;2022-11-20T01:04:26;3.40;99.90
12893;DHT22;6514;48.606;9.222;2022-11-20T01:06:53;3.30;99.90
12893;DHT22;6514;48.606;9.222;2022-11-20T01:09:20;3.30;99.90
12893;DHT22;6514;48.606;9.222;2022-11-20T01:11:47;3.30;99.90
12893;DHT22;6514;48.606;9.222;2022-11-20T01:14:17;3.20;99.90
12893;DHT22;6514;48.606;9.222;2022-11-20T01:16:47;3.20;99.90
12893;DHT22;6514;48.606;9.222;2022-11-20T01:19:17;3.10;99.90
12893;DHT22;6514;48.606;9.222;2022-11-20T01:21:49;3.10;99.90
12893;DHT22;6514;48.606;9.222;2022-11-20T01:24:18;3.00;99.90
12893;DHT22;6514;48.606;9.222;2022-11-20T01:26:48;3.10;99.90
12893;DHT22;6514;48.606;9.222;2022-11-20T01:29:19;3.10;99.90
12893;DHT22;6514;48.606;9.222;2022-11-20T01:31:46;3.20;99.90
12893;DHT22;6514;48.606;9.222;2022-11-20T01:34:15;3.20;99.90
12893;DHT22;6514;48.606;9.222;2022-11-20T01:36:43;3.30;99.90
12893;DHT22;6514;48.606;9.222;2022-11-20T01:39:12;3.30;99.90
12893;DHT22;6514;48.606;9.222;2022-11-20T01:41:40;3.30;99.90
12893;DHT22;6514;48.606;9.222;2022-11-20T01:44:50;3.30;99.90
12893;DHT22;6514;48.606;9.222;2022-11-20T01:47:22;3.30;99.90
12893;DHT22;6514;48.606;9.222;2022-11-20T01:49:54;3.30;99.90
12893;DHT22;6514;48.606;9.222;2022-11-20T01:52:25;3.20;99.90
12893;DHT22;6514;48.606;9.222;2022-11-20T01:55:01;3.20;99.90
12893;DHT22;6514;48.606;9.222;2022-11-20T01:57:31;3.10;99.90
12893;DHT22;6514;48.606;9.222;2022-11-20T02:00:04;3.10;99.90
12893;DHT22;6514;48.606;9.222;2022-11-20T02:02:32;3.00;99.90
12893;DHT22;6514;48.606;9.222;2022-11-20T02:05:08;2.90;99.90
12893;DHT22;6514;48.606;9.222;2022-11-20T02:07:37;2.90;99.90
12893;DHT22;6514;48.606;9.222;2022-11-20T02:10:04;2.80;99.90
12893;DHT22;6514;48.606;9.222;2022-11-20T02:12:31;2.80;99.90
12893;DHT22;6514;48.606;9.222;2022-11-20T02:15:17;2.80;99.90
12893;DHT22;6514;48.606;9.222;2022-11-20T02:17:44;2.80;99.90
12893;DHT22;6514;48.606;9.222;2022-11-20T02:20:11;2.90;99.90
12893;DHT22;6514;48.606;9.222;2022-11-20T02:22:42;2.80;99.90
12893;DHT22;6514;48.606;9.222;2022-11-20T02:25:15;2.90;99.90
12893;DHT22;6514;48.606;9.222;2022-11-20T02:27:42;2.80;99.90
12893;DHT22;6514;48.606;9.222;2022-11-20T02:30:10;2.80;99.90
12893;DHT22;6514;48.606;9.222;2022-11-20T02:32:38;2.80;99.90
12893;DHT22;6514;48.606;9.222;2022-11-20T02:35:07;2.80;99.90
12893;DHT22;6514;48.606;9.222;2022-11-20T02:37:37;2.80;99.90
12893;DHT22;6514;48.606;9.222;2022-11-20T02:40:06;2.70;99.90
12893;DHT22;6514;48.606;9.222;2022-11-20T02:42:35;2.70;99.90
12893;DHT22;6514;48.606;9.222;2022-11-20T02:45:02;2.60;99.90
12893;DHT22;6514;48.606;9.222;2022-11-20T02:47:29;2.60;99.90
12893;DHT22;6514;48.606;9.222;2022-11-20T02:49:56;2.60;99.90
12893;DHT22;6514;48.606;9.222;2022-11-20T02:52:23;2.60;99.90
12893;DHT22;6514;48.606;9.222;2022-11-20T02:54:50;2.60;99.90
12893;DHT22;6514;48.606;9.222;2022-11-20T02:57:17;2.60;99.90
12893;DHT22;6514;48.606;9.222;2022-11-20T02:59:45;2.70;99.90
12893;DHT22;6514;48.606;9.222;2022-11-20T03:02:12;2.70;99.90
12893;DHT22;6514;48.606;9.222;2022-11-20T03:04:39;2.80;99.90
12893;DHT22;6514;48.606;9.222;2022-11-20T03:07:07;2.80;99.90
12893;DHT22;6514;48.606;9.222;2022-11-20T03:09:35;2.80;99.90
12893;DHT22;6514;48.606;9.222;2022-11-20T03:12:02;2.90;99.90
12893;DHT22;6514;48.606;9.222;2022-11-20T03:14:29;3.00;99.90
12893;DHT22;6514;48.606;9.222;2022-11-20T03:16:57;3.00;99.90
12893;DHT22;6514;48.606;9.222;2022-11-20T03:19:24;3.10;99.90
12893;DHT22;6514;48.606;9.222;2022-11-20T03:21:51;3.20;99.90
12893;DHT22;6514;48.606;9.222;2022-11-20T03:24:18;3.20;99.90
12893;DHT22;6514;48.606;9.222;2022-11-20T03:26:44;3.30;99.90
12893;DHT22;6514;48.606;9.222;2022-11-20T03:29:11;3.30;99.90
12893;DHT22;6514;48.606;9.222;2022-11-20T03:31:39;3.40;99.90
12893;DHT22;6514;48.606;9.222;2022-11-20T03:34:08;3.50;99.90
12893;DHT22;6514;48.606;9.222;2022-11-20T03:36:37;3.50;99.90
12893;DHT22;6514;48.606;9.222;2022-11-20T03:39:04;3.50;99.90
12893;DHT22;6514;48.606;9.222;2022-11-20T03:41:34;3.60;99.90
12893;DHT22;6514;48.606;9.222;2022-11-20T03:44:03;3.60;99.90
12893;DHT22;6514;48.606;9.222;2022-11-20T03:46:30;3.70;99.90
12893;DHT22;6514;48.606;9.222;2022-11-20T03:48:58;3.70;99.90
12893;DHT22;6514;48.606;9.222;2022-11-20T03:51:30;3.70;99.90
12893;DHT22;6514;48.606;9.222;2022-11-20T03:54:00;3.70;99.90
12893;DHT22;6514;48.606;9.222;2022-11-20T03:56:29;3.70;99.90
12893;DHT22;6514;48.606;9.222;2022-11-20T03:58:56;3.80;99.90
12893;DHT22;6514;48.606;9.222;2022-11-20T04:01:25;3.80;99.90
12893;DHT22;6514;48.606;9.222;2022-11-20T04:03:53;3.80;99.90
12893;DHT22;6514;48.606;9.222;2022-11-20T04:06:21;3.80;99.90
12893;DHT22;6514;48.606;9.222;2022-11-20T04:08:50;3.90;99.90
12893;DHT22;6514;48.606;9.222;2022-11-20T04:11:19;3.80;99.90
12893;DHT22;6514;48.606;9.222;2022-11-20T04:13:47;3.80;99.90
12893;DHT22;6514;48.606;9.222;2022-11-20T04:16:15;3.80;99.90
12893;DHT22;6514;48.606;9.222;2022-11-20T04:18:42;3.80;99.90
12893;DHT22;6514;48.606;9.222;2022-11-20T04:21:10;3.70;99.90
12893;DHT22;6514;48.606;9.222;2022-11-20T04:23:37;3.70;99.90
12893;DHT22;6514;48.606;9.222;2022-11-20T04:26:07;3.80;99.90
12893;DHT22;6514;48.606;9.222;2022-11-20T04:28:34;3.80;99.90
12893;DHT22;6514;48.606;9.222;2022-11-20T04:31:05;3.90;99.90
12893;DHT22;6514;48.606;9.222;2022-11-20T04:33:33;3.90;99.90
12893;DHT22;6514;48.606;9.222;2022-11-20T04:36:01;4.00;99.90
12893;DHT22;6514;48.606;9.222;2022-11-20T04:38:28;4.10;99.90
12893;DHT22;6514;48.606;9.222;2022-11-20T04:40:57;4.10;99.90
12893;DHT22;6514;48.606;9.222;2022-11-20T04:43:26;4.10;99.90
12893;DHT22;6514;48.606;9.222;2022-11-20T04:45:53;4.20;99.90
12893;DHT22;6514;48.606;9.222;2022-11-20T04:48:20;4.20;99.90
12893;DHT22;6514;48.606;9.222;2022-11-20T04:50:47;4.20;99.90
12893;DHT22;6514;48.606;9.222;2022-11-20T04:53:14;4.20;99.90
12893;DHT22;6514;48.606;9.222;2022-11-20T04:55:41;4.20;99.90
12893;DHT22;6514;48.606;9.222;2022-11-20T04:58:08;4.20;99.90
12893;DHT22;6514;48.606;9.222;2022-11-20T05:00:36;4.30;99.90
12893;DHT22;6514;48.606;9.222;2022-11-20T05:03:03;4.30;99.90
12893;DHT22;6514;48.606;9.222;2022-11-20T05:05:31;4.30;99.90
12893;DHT22;6514;48.606;9.222;2022-11-20T05:07:58;4.30;99.90
12893;DHT22;6514;48.606;9.222;2022-11-20T05:10:25;4.40;99.90
12893;DHT22;6514;48.606;9.222;2022-11-20T05:12:52;4.40;99.90
12893;DHT22;6514;48.606;9.222;2022-11-20T05:15:19;4.40;99.90
12893;DHT22;6514;48.606;9.222;2022-11-20T05:17:51;4.40;99.90
12893;DHT22;6514;48.606;9.222;2022-11-20T05:20:19;4.40;99.90
12893;DHT22;6514;48.606;9.222;2022-11-20T05:22:46;4.40;99.90
12893;DHT22;6514;48.606;9.222;2022-11-20T05:25:13;4.50;99.90
12893;DHT22;6514;48.606;9.222;2022-11-20T05:27:39;4.50;99.90
12893;DHT22;6514;48.606;9.222;2022-11-20T05:30:08;4.60;99.90
12893;DHT22;6514;48.606;9.222;2022-11-20T05:32:35;4.60;99.90
12893;DHT22;6514;48.606;9.222;2022-11-20T05:35:03;4.60;99.90
12893;DHT22;6514;48.606;9.222;2022-11-20T05:37:30;4.70;99.90
12893;DHT22;6514;48.606;9.222;2022-11-20T05:39:57;4.70;99.90
12893;DHT22;6514;48.606;9.222;2022-11-20T05:42:24;4.70;99.90
12893;DHT22;6514;48.606;9.222;2022-11-20T05:45:00;4.70;99.90
12893;DHT22;6514;48.606;9.222;2022-11-20T05:47:27;4.80;99.90
12893;DHT22;6514;48.606;9.222;2022-11-20T05:49:54;4.80;99.90
12893;DHT22;6514;48.606;9.222;2022-11-20T05:52:22;4.70;99.90
12893;DHT22;6514;48.606;9.222;2022-11-20T05:54:49;4.80;99.90
12893;DHT22;6514;48.606;9.222;2022-11-20T05:57:16;4.80;99.90
12893;DHT22;6514;48.606;9.222;2022-11-20T05:59:43;4.70;99.90
12893;DHT22;6514;48.606;9.222;2022-11-20T06:02:10;4.70;99.90
12893;DHT22;6514;48.606;9.222;2022-11-20T06:04:37;4.70;99.90
12893;DHT22;6514;48.606;9.222;2022-11-20T06:07:05;4.70;99.90
12893;DHT22;6514;48.606;9.222;2022-11-20T06:09:34;4.60;99.90
12893;DHT22;6514;48.606;9.222;2022-11-20T06:12:01;4.60;99.90
12893;DHT22;6514;48.606;9.222;2022-11-20T06:14:27;4.60;99.90
12893;DHT22;6514;48.606;9.222;2022-11-20T06:16:54;4.60;99.90
12893;DHT22;6514;48.606;9.222;2022-11-20T06:19:21;4.60;99.90
12893;DHT22;6514;48.606;9.222;2022-11-20T06:21:48;4.60;99.90
12893;DHT22;6514;48.606;9.222;2022-11-20T06:24:15;4.60;99.90
12893;DHT22;6514;48.606;9.222;2022-11-20T06:26:44;4.60;99.90
12893;DHT22;6514;48.606;9.222;2022-11-20T06:29:11;4.60;99.90
12893;DHT22;6514;48.606;9.222;2022-11-20T06:31:37;4.60;99.90
12893;DHT22;6514;48.606;9.222;2022-11-20T06:34:05;4.60;99.90
12893;DHT22;6514;48.606;9.222;2022-11-20T06:36:32;4.60;99.90
12893;DHT22;6514;48.606;9.222;2022-11-20T06:38:59;4.60;99.90
12893;DHT22;6514;48.606;9.222;2022-11-20T06:41:26;4.60;99.90
12893;DHT22;6514;48.606;9.222;2022-11-20T06:43:54;4.60;99.90
12893;DHT22;6514;48.606;9.222;2022-11-20T06:46:22;4.60;99.90
12893;DHT22;6514;48.606;9.222;2022-11-20T06:48:49;4.70;99.90
12893;DHT22;6514;48.606;9.222;2022-11-20T06:51:16;4.70;99.90
12893;DHT22;6514;48.606;9.222;2022-11-20T06:53:43;4.70;99.90
12893;DHT22;6514;48.606;9.222;2022-11-20T06:56:10;4.70;99.90
12893;DHT22;6514;48.606;9.222;2022-11-20T06:58:37;4.80;99.90
12893;DHT22;6514;48.606;9.222;2022-11-20T07:01:07;4.80;99.90
12893;DHT22;6514;48.606;9.222;2022-11-20T07:03:34;4.80;99.90
12893;DHT22;6514;48.606;9.222;2022-11-20T07:06:02;4.80;99.90
12893;DHT22;6514;48.606;9.222;2022-11-20T07:08:29;4.80;99.90
12893;DHT22;6514;48.606;9.222;2022-11-20T07:10:57;4.80;99.90
12893;DHT22;6514;48.606;9.222;2022-11-20T07:13:24;4.80;99.90
12893;DHT22;6514;48.606;9.222;2022-11-20T07:15:51;4.80;99.90
12893;DHT22;6514;48.606;9.222;2022-11-20T07:18:20;4.80;99.90
12893;DHT22;6514;48.606;9.222;2022-11-20T07:20:47;4.80;99.90
12893;DHT22;6514;48.606;9.222;2022-11-20T07:23:13;4.80;99.90
12893;DHT22;6514;48.606;9.222;2022-11-20T07:25:40;4.80;99.90
12893;DHT22;6514;48.606;9.222;2022-11-20T07:28:07;4.80;99.90
12893;DHT22;6514;48.606;9.222;2022-11-20T07:30:36;4.90;99.90
12893;DHT22;6514;48.606;9.222;2022-11-20T07:33:03;4.90;99.90
12893;DHT22;6514;48.606;9.222;2022-11-20T07:35:32;5.00;99.90
12893;DHT22;6514;48.606;9.222;2022-11-20T07:37:59;5.00;99.90
12893;DHT22;6514;48.606;9.222;2022-11-20T07:40:26;5.00;99.90
12893;DHT22;6514;48.606;9.222;2022-11-20T07:42:54;5.10;99.90
12893;DHT22;6514;48.606;9.222;2022-11-20T07:45:23;5.10;99.90
12893;DHT22;6514;48.606;9.222;2022-11-20T07:47:52;5.10;99.90
12893;DHT22;6514;48.606;9.222;2022-11-20T07:50:20;5.10;99.90
12893;DHT22;6514;48.606;9.222;2022-11-20T07:52:48;5.20;99.90
12893;DHT22;6514;48.606;9.222;2022-11-20T07:55:16;5.20;99.90
12893;DHT22;6514;48.606;9.222;2022-11-20T07:57:43;5.30;99.90
12893;DHT22;6514;48.606;9.222;2022-11-20T08:00:11;5.40;99.90
12893;DHT22;6514;48.606;9.222;2022-11-20T08:02:38;5.50;99.90
12893;DHT22;6514;48.606;9.222;2022-11-20T08:05:06;5.60;99.90
12893;DHT22;6514;48.606;9.222;2022-11-20T08:07:38;5.70;99.90
12893;DHT22;6514;48.606;9.222;2022-11-20T08:10:09;5.80;99.90
12893;DHT22;6514;48.606;9.222;2022-11-20T08:12:42;6.00;99.90
12893;DHT22;6514;48.606;9.222;2022-11-20T08:15:27;6.00;99.90
12893;DHT22;6514;48.606;9.222;2022-11-20T08:17:59;6.00;99.90
12893;DHT22;6514;48.606;9.222;2022-11-20T08:20:26;6.10;99.90
12893;DHT22;6514;48.606;9.222;2022-11-20T08:22:57;6.10;99.90
12893;DHT22;6514;48.606;9.222;2022-11-20T08:25:26;6.10;99.90
12893;DHT22;6514;48.606;9.222;2022-11-20T08:27:53;6.20;99.90
12893;DHT22;6514;48.606;9.222;2022-11-20T08:30:20;6.20;99.90
12893;DHT22;6514;48.606;9.222;2022-11-20T08:32:47;6.20;99.90
12893;DHT22;6514;48.606;9.222;2022-11-20T08:35:14;6.20;99.90
12893;DHT22;6514;48.606;9.222;2022-11-20T08:37:41;6.20;99.90
12893;DHT22;6514;48.606;9.222;2022-11-20T08:40:10;6.20;99.90
12893;DHT22;6514;48.606;9.222;2022-11-20T08:42:46;6.20;99.90
12893;DHT22;6514;48.606;9.222;2022-11-20T08:45:13;6.20;99.90
12893;DHT22;6514;48.606;9.222;2022-11-20T08:47:40;6.20;99.90
12893;DHT22;6514;48.606;9.222;2022-11-20T08:50:08;6.20;99.90
12893;DHT22;6514;48.606;9.222;2022-11-20T08:52:35;6.30;99.90
12893;DHT22;6514;48.606;9.222;2022-11-20T08:55:02;6.80;99.90
12893;DHT22;6514;48.606;9.222;2022-11-20T08:57:32;6.30;99.90
12893;DHT22;6514;48.606;9.222;2022-11-20T09:00:01;6.30;99.90
12893;DHT22;6514;48.606;9.222;2022-11-20T09:02:28;6.40;99.90
12893;DHT22;6514;48.606;9.222;2022-11-20T09:04:55;6.40;99.90
12893;DHT22;6514;48.606;9.222;2022-11-20T09:07:22;6.40;99.90
12893;DHT22;6514;48.606;9.222;2022-11-20T09:09:49;6.40;99.90
12893;DHT22;6514;48.606;9.222;2022-11-20T09:12:15;6.80;99.90
12893;DHT22;6514;48.606;9.222;2022-11-20T09:14:42;6.50;99.90
12893;DHT22;6514;48.606;9.222;2022-11-20T09:17:11;6.50;99.90
12893;DHT22;6514;48.606;9.222;2022-11-20T09:19:40;6.60;99.90
12893;DHT22;6514;48.606;9.222;2022-11-20T09:22:07;6.60;99.90
12893;DHT22;6514;48.606;9.222;2022-11-20T09:24:34;6.60;99.90
12893;DHT22;6514;48.606;9.222;2022-11-20T09:27:04;6.60;99.90
12893;DHT22;6514;48.606;9.222;2022-11-20T09:29:31;6.70;99.90
12893;DHT22;6514;48.606;9.222;2022-11-20T09:31:58;6.80;99.90
12893;DHT22;6514;48.606;9.222;2022-11-20T09:34:26;6.90;99.90
12893;DHT22;6514;48.606;9.222;2022-11-20T09:36:53;6.90;99.90
12893;DHT22;6514;48.606;9.222;2022-11-20T09:39:20;7.00;99.90
12893;DHT22;6514;48.606;9.222;2022-11-20T09:42:04;7.00;99.90
12893;DHT22;6514;48.606;9.222;2022-11-20T09:44:53;7.00;99.90
12893;DHT22;6514;48.606;9.222;2022-11-20T09:47:30;7.00;99.90
12893;DHT22;6514;48.606;9.222;2022-11-20T09:50:13;7.10;99.90
12893;DHT22;6514;48.606;9.222;2022-11-20T09:52:51;7.10;99.90
12893;DHT22;6514;48.606;9.222;2022-11-20T09:55:21;7.00;99.90
12893;DHT22;6514;48.606;9.222;2022-11-20T09:57:51;6.90;99.90
12893;DHT22;6514;48.606;9.222;2022-11-20T10:00:19;7.00;99.90
12893;DHT22;6514;48.606;9.222;2022-11-20T10:02:50;7.00;99.90
12893;DHT22;6514;48.606;9.222;2022-11-20T10:05:22;7.00;99.90
12893;DHT22;6514;48.606;9.222;2022-11-20T10:07:53;7.00;99.90
12893;DHT22;6514;48.606;9.222;2022-11-20T10:10:29;7.00;99.90
12893;DHT22;6514;48.606;9.222;2022-11-20T10:13:10;7.00;99.90
12893;DHT22;6514;48.606;9.222;2022-11-20T10:15:53;7.10;99.90
12893;DHT22;6514;48.606;9.222;2022-11-20T10:18:31;7.20;99.90
12893;DHT22;6514;48.606;9.222;2022-11-20T10:21:11;7.30;99.90
12893;DHT22;6514;48.606;9.222;2022-11-20T10:26:41;7.30;99.90
12893;DHT22;6514;48.606;9.222;2022-11-20T10:29:12;7.20;99.90
12893;DHT22;6514;48.606;9.222;2022-11-20T10:31:41;7.20;99.90
12893;DHT22;6514;48.606;9.222;2022-11-20T10:34:19;7.20;99.90
12893;DHT22;6514;48.606;9.222;2022-11-20T10:36:52;7.20;99.90
12893;DHT22;6514;48.606;9.222;2022-11-20T10:39:26;7.10;99.90
12893;DHT22;6514;48.606;9.222;2022-11-20T10:41:56;7.20;99.90
12893;DHT22;6514;48.606;9.222;2022-11-20T10:44:27;7.10;99.90
12893;DHT22;6514;48.606;9.222;2022-11-20T10:47:13;7.20;99.90
12893;DHT22;6514;48.606;9.222;2022-11-20T10:49:41;7.30;99.90
12893;DHT22;6514;48.606;9.222;2022-11-20T10:52:15;7.40;99.90
12893;DHT22;6514;48.606;9.222;2022-11-20T10:54:47;7.40;99.90
12893;DHT22;6514;48.606;9.222;2022-11-20T10:57:25;7.40;99.90
12893;DHT22;6514;48.606;9.222;2022-11-20T11:00:04;7.50;99.90
12893;DHT22;6514;48.606;9.222;2022-11-20T11:02:34;7.90;99.90
12893;DHT22;6514;48.606;9.222;2022-11-20T11:05:14;7.60;99.90
12893;DHT22;6514;48.606;9.222;2022-11-20T11:07:46;7.60;99.90
12893;DHT22;6514;48.606;9.222;2022-11-20T11:10:16;7.60;99.90
12893;DHT22;6514;48.606;9.222;2022-11-20T11:12:46;7.70;99.90
12893;DHT22;6514;48.606;9.222;2022-11-20T11:15:26;7.80;99.90
12893;DHT22;6514;48.606;9.222;2022-11-20T11:17:53;7.90;99.90
12893;DHT22;6514;48.606;9.222;2022-11-20T11:20:22;7.90;99.90
12893;DHT22;6514;48.606;9.222;2022-11-20T11:22:52;8.10;99.90
12893;DHT22;6514;48.606;9.222;2022-11-20T11:25:21;8.20;99.90
12893;DHT22;6514;48.606;9.222;2022-11-20T11:27:50;8.30;99.90
12893;DHT22;6514;48.606;9.222;2022-11-20T11:30:19;8.40;99.90
12893;DHT22;6514;48.606;9.222;2022-11-20T11:32:46;8.60;99.90
12893;DHT22;6514;48.606;9.222;2022-11-20T11:35:23;8.70;99.90
12893;DHT22;6514;48.606;9.222;2022-11-20T11:37:54;8.80;99.90
12893;DHT22;6514;48.606;9.222;2022-11-20T11:40:30;8.70;99.90
12893;DHT22;6514;48.606;9.222;2022-11-20T11:43:01;8.70;99.90
12893;DHT22;6514;48.606;9.222;2022-11-20T11:45:28;8.60;99.90
12893;DHT22;6514;48.606;9.222;2022-11-20T11:47:56;8.60;99.90
12893;DHT22;6514;48.606;9.222;2022-11-20T11:50:25;8.70;99.90
12893;DHT22;6514;48.606;9.222;2022-11-20T11:53:03;8.80;99.90
12893;DHT22;6514;48.606;9.222;2022-11-20T11:55:36;9.10;99.90
12893;DHT22;6514;48.606;9.222;2022-11-20T11:58:30;9.20;99.90
12893;DHT22;6514;48.606;9.222;2022-11-20T12:01:04;9.20;99.90
12893;DHT22;6514;48.606;9.222;2022-11-20T12:03:37;9.10;99.90
12893;DHT22;6514;48.606;9.222;2022-11-20T12:06:12;9.10;99.90
12893;DHT22;6514;48.606;9.222;2022-11-20T12:08:46;9.00;99.90
12893;DHT22;6514;48.606;9.222;2022-11-20T12:11:19;8.90;99.90
12893;DHT22;6514;48.606;9.222;2022-11-20T12:13:52;8.90;99.90
12893;DHT22;6514;48.606;9.222;2022-11-20T12:16:20;9.00;99.90
12893;DHT22;6514;48.606;9.222;2022-11-20T12:18:50;9.10;99.90
12893;DHT22;6514;48.606;9.222;2022-11-20T12:21:27;9.10;99.90
12893;DHT22;6514;48.606;9.222;2022-11-20T12:24:20;9.20;99.90
12893;DHT22;6514;48.606;9.222;2022-11-20T12:27:01;9.30;99.90
12893;DHT22;6514;48.606;9.222;2022-11-20T12:29:41;9.30;99.90
12893;DHT22;6514;48.606;9.222;2022-11-20T12:32:47;9.30;99.90
12893;DHT22;6514;48.606;9.222;2022-11-20T12:35:29;9.30;99.90
12893;DHT22;6514;48.606;9.222;2022-11-20T12:38:13;9.20;99.90
12893;DHT22;6514;48.606;9.222;2022-11-20T12:40:53;9.10;99.90
12893;DHT22;6514;48.606;9.222;2022-11-20T12:43:27;8.90;99.90
12893;DHT22;6514;48.606;9.222;2022-11-20T12:46:18;8.70;99.90
12893;DHT22;6514;48.606;9.222;2022-11-20T12:49:08;8.50;99.90
12893;DHT22;6514;48.606;9.222;2022-11-20T12:52:05;8.50;99.90
12893;DHT22;6514;48.606;9.222;2022-11-20T12:55:11;8.40;99.90
12893;DHT22;6514;48.606;9.222;2022-11-20T12:57:46;8.20;99.90
12893;DHT22;6514;48.606;9.222;2022-11-20T13:00:18;8.20;99.90
12893;DHT22;6514;48.606;9.222;2022-11-20T13:03:13;8.10;99.90
12893;DHT22;6514;48.606;9.222;2022-11-20T13:05:52;8.00;99.90
12893;DHT22;6514;48.606;9.222;2022-11-20T13:08:23;8.10;99.90
12893;DHT22;6514;48.606;9.222;2022-11-20T13:10:56;8.20;99.90
12893;DHT22;6514;48.606;9.222;2022-11-20T13:13:35;8.30;99.90
12893;DHT22;6514;48.606;9.222;2022-11-20T13:16:15;8.70;99.90
12893;DHT22;6514;48.606;9.222;2022-11-20T13:18:43;9.10;99.90
12893;DHT22;6514;48.606;9.222;2022-11-20T13:21:18;9.40;99.90
12893;DHT22;6514;48.606;9.222;2022-11-20T13:23:46;9.50;99.90
12893;DHT22;6514;48.606;9.222;2022-11-20T13:26:19;9.30;99.90
12893;DHT22;6514;48.606;9.222;2022-11-20T13:29:01;9.00;99.90
12893;DHT22;6514;48.606;9.222;2022-11-20T13:31:31;8.80;99.90
12893;DHT22;6514;48.606;9.222;2022-11-20T13:34:01;8.60;99.90
12893;DHT22;6514;48.606;9.222;2022-11-20T13:36:29;8.40;99.90
12893;DHT22;6514;48.606;9.222;2022-11-20T13:38:58;8.20;99.90
12893;DHT22;6514;48.606;9.222;2022-11-20T13:41:30;8.20;99.90
12893;DHT22;6514;48.606;9.222;2022-11-20T13:44:09;8.10;99.90
12893;DHT22;6514;48.606;9.222;2022-11-20T13:46:39;7.90;99.90
12893;DHT22;6514;48.606;9.222;2022-11-20T13:49:14;7.90;99.90
12893;DHT22;6514;48.606;9.222;2022-11-20T13:51:44;7.90;99.90
12893;DHT22;6514;48.606;9.222;2022-11-20T13:57:38;7.80;99.90
12893;DHT22;6514;48.606;9.222;2022-11-20T14:00:12;7.80;99.90
12893;DHT22;6514;48.606;9.222;2022-11-20T14:02:40;7.90;99.90
12893;DHT22;6514;48.606;9.222;2022-11-20T14:05:17;8.00;99.90
12893;DHT22;6514;48.606;9.222;2022-11-20T14:07:47;8.00;99.90
12893;DHT22;6514;48.606;9.222;2022-11-20T14:10:23;8.00;99.90
12893;DHT22;6514;48.606;9.222;2022-11-20T14:12:52;7.90;99.90
12893;DHT22;6514;48.606;9.222;2022-11-20T14:15:29;7.70;99.90
12893;DHT22;6514;48.606;9.222;2022-11-20T14:17:57;7.60;99.90
12893;DHT22;6514;48.606;9.222;2022-11-20T14:20:27;7.40;99.90
12893;DHT22;6514;48.606;9.222;2022-11-20T14:22:57;7.30;99.90
12893;DHT22;6514;48.606;9.222;2022-11-20T14:25:25;7.10;99.90
12893;DHT22;6514;48.606;9.222;2022-11-20T14:27:54;7.10;99.90
12893;DHT22;6514;48.606;9.222;2022-11-20T14:30:24;7.00;99.90
12893;DHT22;6514;48.606;9.222;2022-11-20T14:33:02;6.90;99.90
12893;DHT22;6514;48.606;9.222;2022-11-20T14:35:35;6.90;99.90
12893;DHT22;6514;48.606;9.222;2022-11-20T14:38:04;6.90;99.90
12893;DHT22;6514;48.606;9.222;2022-11-20T14:40:36;6.90;99.90
12893;DHT22;6514;48.606;9.222;2022-11-20T14:43:17;6.90;99.90
12893;DHT22;6514;48.606;9.222;2022-11-20T14:45:45;6.90;99.90
12893;DHT22;6514;48.606;9.222;2022-11-20T14:48:17;6.90;99.90
12893;DHT22;6514;48.606;9.222;2022-11-20T14:50:44;6.90;99.90
12893;DHT22;6514;48.606;9.222;2022-11-20T14:53:22;6.90;99.90
12893;DHT22;6514;48.606;9.222;2022-11-20T14:55:55;6.90;99.90
12893;DHT22;6514;48.606;9.222;2022-11-20T14:58:24;6.80;99.90
12893;DHT22;6514;48.606;9.222;2022-11-20T15:00:54;6.80;99.90
12893;DHT22;6514;48.606;9.222;2022-11-20T15:03:30;6.70;99.90
12893;DHT22;6514;48.606;9.222;2022-11-20T15:05:57;6.60;99.90
12893;DHT22;6514;48.606;9.222;2022-11-20T15:08:25;6.60;99.90
12893;DHT22;6514;48.606;9.222;2022-11-20T15:10:53;6.50;99.90
12893;DHT22;6514;48.606;9.222;2022-11-20T15:13:26;6.50;99.90
12893;DHT22;6514;48.606;9.222;2022-11-20T15:15:55;6.40;99.90
12893;DHT22;6514;48.606;9.222;2022-11-20T15:18:27;6.30;99.90
12893;DHT22;6514;48.606;9.222;2022-11-20T15:20:55;6.30;99.90
12893;DHT22;6514;48.606;9.222;2022-11-20T15:23:23;6.20;99.90
12893;DHT22;6514;48.606;9.222;2022-11-20T15:25:50;6.10;99.90
12893;DHT22;6514;48.606;9.222;2022-11-20T15:28:19;6.00;99.90
12893;DHT22;6514;48.606;9.222;2022-11-20T15:30:51;5.90;99.90
12893;DHT22;6514;48.606;9.222;2022-11-20T15:33:18;5.80;99.90
12893;DHT22;6514;48.606;9.222;2022-11-20T15:35:46;5.70;99.90
12893;DHT22;6514;48.606;9.222;2022-11-20T15:38:14;5.60;99.90
12893;DHT22;6514;48.606;9.222;2022-11-20T15:40:41;5.50;99.90
12893;DHT22;6514;48.606;9.222;2022-11-20T15:43:08;5.40;99.90
12893;DHT22;6514;48.606;9.222;2022-11-20T15:45:41;5.40;99.90
12893;DHT22;6514;48.606;9.222;2022-11-20T15:48:13;5.30;99.90
12893;DHT22;6514;48.606;9.222;2022-11-20T15:50:48;5.20;99.90
12893;DHT22;6514;48.606;9.222;2022-11-20T15:53:16;5.10;99.90
12893;DHT22;6514;48.606;9.222;2022-11-20T15:55:43;5.00;99.90
12893;DHT22;6514;48.606;9.222;2022-11-20T15:58:11;4.90;99.90
12893;DHT22;6514;48.606;9.222;2022-11-20T16:00:38;4.80;99.90
12893;DHT22;6514;48.606;9.222;2022-11-20T16:03:09;4.80;99.90
12893;DHT22;6514;48.606;9.222;2022-11-20T16:05:37;4.80;99.90
12893;DHT22;6514;48.606;9.222;2022-11-20T16:08:06;4.80;99.90
12893;DHT22;6514;48.606;9.222;2022-11-20T16:10:33;4.80;99.90
12893;DHT22;6514;48.606;9.222;2022-11-20T16:13:02;4.80;99.90
12893;DHT22;6514;48.606;9.222;2022-11-20T16:15:51;4.70;99.90
12893;DHT22;6514;48.606;9.222;2022-11-20T16:18:24;4.80;99.90
12893;DHT22;6514;48.606;9.222;2022-11-20T16:20:53;4.70;99.90
12893;DHT22;6514;48.606;9.222;2022-11-20T16:23:22;4.70;99.90
12893;DHT22;6514;48.606;9.222;2022-11-20T16:25:49;4.60;99.90
12893;DHT22;6514;48.606;9.222;2022-11-20T16:28:17;4.70;99.90